Allen, MI

1:52 PM EDT on August 29, 2014 (GMT -0400)
West side Reading Township | Change Station
CLOSE
Current Station
Personal Weather Station
Location: Reading, MI
Elevation: 1031 ft
Nearby Weather Stations

Elev 1031 ft 41.85 °N, 84.80 °W | Updated 5 seconds ago

Mostly Cloudy
Mostly Cloudy
76.5 °F
Feels Like 78 °F
N
0.0
Wind Variable Wind from SSW
Gusts 8.0 mph

Today
High -- | Low -- °F
--% Chance of Precip.
Yesterday
High -- | Low -- °F
Precip. -- in
7:01 AM 8:17 PM
Waxing Crescent, 15% visible
Pressure 30.09 in
Visibility 10.0 miles
Clouds Clear
Heat Index 78 °F
Dew Point 66 °F
Humidity 69%
Rainfall 0.00 in
Snow Depth Not available.
UV 9 out of 12
Pollen 8.90 out of 12
Ozone Good
PM2.5 Good
Flu Activity Not available.
METAR KJYM 291734Z AUTO 18007KT 10SM CLR 25/15 A3009 RMK AO2 T02460153

More Conditions Fewer Conditions

Pressure 30.09 in
Visibility 10.0 miles
Clouds Clear
Heat Index 78 °F
Dew Point 66 °F
Humidity 69%
Rainfall 0.00 in
Snow Depth Not available.
UV 9 out of 12
Pollen 8.90 out of 12
Ozone Good
PM2.5 Good
Flu Activity Not available.
METAR KJYM 291734Z AUTO 18007KT 10SM CLR 25/15 A3009 RMK AO2 T02460153

More Conditions Fewer Conditions

10-Day Weather Forecast

Almanac

Astronomy

Aug. 29, 2014 Rise Set
Actual Time 7:01 AM EDT 8:17 PM EDT
Civil Twilight 6:32 AM EDT 8:46 PM EDT
Nautical Twilight 5:58 AM EDT 9:20 PM EDT
Astronomical Twilight 5:21 AM EDT 9:57 PM EDT
Moon 10:54 AM EDT 10:10 PM EDT
Length of Visible Light 14h 13m
Length of Day
13h 15m
Tomorrow will be 2m 42s shorter.
Waxing Crescent, 15% of the Moon is Illuminated
Today
Waxing Crescent
Sep 2
First Quarter
Sep 8
Full
Sep 15
Last Quarter
Sep 24
New

Today's Extremes

State Highs State Lows

Community

WunderPhotos

Upload Photos

1,748,302 photos uploaded!

Nearby

Air Quality

  Air Quality AQ Index Pollutant
Yesterday Good
OZONE
Yesterday Good
PM2.5
Current Good
PM2.5
Current Good
OZONE
Friday Good
OZONE
Friday Good
PM2.5
Saturday Moderate
PM2.5
Saturday Good
OZONE
Sunday Good
OZONE
Sunday Good
PM2.5
Monday Good
OZONE
Monday Good
PM2.5
Tuesday Good
OZONE
Tuesday Good
PM2.5

Snow Depth

Station Depth Elevation
No new snow has been reported.

Earthquake Activity

City Distance Mag. Time & Date
No recent earthquake activity has been reported nearby.
Minimum magnitude displayed is 2.5.

Coastal Water Temperatures

Place Temperature
No Stations Reporting

Nearby Weather Stations